Dozier, Alabama
Current Conditions -  °F | °C
As of 11:10 AM on Sunday 21 Dec 2014 (Local Time) from K79J Reporting Station
Overcast Overcast  
Wind Chill: 61°   Ceiling: 1400
Heat Index: 61°   Visibility: 10mi
Dew Point: 52°   Wind: 7mph
Humidity: 72%   Direction: 120°ESE
Pressure: 30.1"   Gusts: NA
Location:  31.49°N, 86.36°W
Report Text: K79J 211710Z AUTO 12006KT 10SM OVC014 16/11 A3010 RMK AO2
Loading
Personal Weather Stations






























Interactive Weather Map New forecast layout! Learn more

10-Day Weather Forecast

Advertisements
Track Severe Weather on mobile